createdAt,value
2023-05-22T00:02:23.442Z,12.73
2023-05-22T00:05:25.161Z,12.50
2023-05-22T00:08:29.646Z,12.77
2023-05-22T00:11:32.022Z,12.48
2023-05-22T00:14:33.626Z,14.27
2023-05-22T00:17:35.493Z,12.75
2023-05-22T00:20:38.879Z,13.98
2023-05-22T00:23:41.558Z,12.60
2023-05-22T00:26:43.355Z,12.63
2023-05-22T00:29:44.973Z,12.23
2023-05-22T00:32:46.748Z,12.35
2023-05-22T00:35:48.503Z,13.20
2023-05-22T00:38:50.170Z,12.38
2023-05-22T00:41:52.379Z,12.30
2023-05-22T00:44:54.001Z,12.88
2023-05-22T00:47:55.652Z,11.63
2023-05-22T00:50:58.715Z,13.30
2023-05-22T00:54:00.649Z,12.25
2023-05-22T00:57:03.668Z,13.18
2023-05-22T01:03:10.358Z,12.43
2023-05-22T01:06:16.096Z,12.68
2023-05-22T01:09:18.464Z,13.25
2023-05-22T01:12:25.873Z,12.95
2023-05-22T01:16:10.917Z,12.18
2023-05-22T01:19:47.463Z,12.55
2023-05-22T01:23:02.775Z,11.68
2023-05-22T01:26:19.010Z,11.98
2023-05-22T01:29:43.775Z,12.05
2023-05-22T01:32:48.443Z,13.00
2023-05-22T01:35:55.469Z,12.38
2023-05-22T01:39:01.339Z,12.77
2023-05-22T01:42:03.818Z,12.75
2023-05-22T01:45:06.271Z,12.45
2023-05-22T01:48:08.028Z,12.60
2023-05-22T01:51:19.073Z,11.98
2023-05-22T01:54:24.196Z,13.18
2023-05-22T01:57:30.832Z,11.30
2023-05-22T02:00:33.554Z,12.48
2023-05-22T02:03:36.435Z,13.20
2023-05-22T02:06:39.462Z,12.50
2023-05-22T02:09:42.120Z,11.82
2023-05-22T02:12:47.083Z,12.82
2023-05-22T02:15:49.221Z,12.77
2023-05-22T02:18:51.411Z,13.23
2023-05-22T02:21:53.252Z,12.70
2023-05-22T02:24:54.925Z,12.38
2023-05-22T02:27:56.615Z,13.40
2023-05-22T02:30:58.289Z,12.70
2023-05-22T02:34:00.194Z,12.38
2023-05-22T02:37:05.618Z,13.15
2023-05-22T02:40:08.616Z,14.45
2023-05-22T02:43:10.288Z,13.48
2023-05-22T02:46:12.031Z,14.20
2023-05-22T02:49:14.409Z,13.75
2023-05-22T02:52:16.137Z,12.50
2023-05-22T02:55:17.820Z,12.70
2023-05-22T02:58:21.198Z,13.32
2023-05-22T03:01:23.231Z,12.25
2023-05-22T03:04:24.914Z,13.43
2023-05-22T03:07:27.085Z,13.65
2023-05-22T03:10:29.036Z,13.40
2023-05-22T03:13:30.833Z,13.13
2023-05-22T03:16:32.902Z,12.32
2023-05-22T03:19:34.617Z,13.35
2023-05-22T03:22:36.284Z,12.63
2023-05-22T03:25:38.046Z,13.13
2023-05-22T03:28:39.732Z,13.23
2023-05-22T03:31:42.109Z,13.30
2023-05-22T03:34:46.735Z,12.65
2023-05-22T03:37:48.477Z,13.27
2023-05-22T03:40:50.972Z,13.07
2023-05-22T03:43:52.787Z,12.85
2023-05-22T03:46:56.406Z,13.10
2023-05-22T03:49:58.037Z,12.48
2023-05-22T03:52:59.860Z,12.52
2023-05-22T03:56:01.534Z,13.75
2023-05-22T03:59:03.402Z,13.95
2023-05-22T04:02:05.470Z,13.00
2023-05-22T04:05:08.595Z,13.07
2023-05-22T04:08:10.253Z,13.60
2023-05-22T04:11:15.425Z,12.55
2023-05-22T04:14:17.043Z,13.10
2023-05-22T04:17:18.676Z,13.10
2023-05-22T04:20:22.224Z,12.85
2023-05-22T04:23:25.665Z,12.85
2023-05-22T04:26:29.625Z,13.13
2023-05-22T04:29:31.229Z,13.50
2023-05-22T04:32:33.003Z,12.77
2023-05-22T04:35:36.455Z,13.68
2023-05-22T04:38:39.143Z,13.25
2023-05-22T04:41:41.250Z,14.25
2023-05-22T04:44:43.619Z,13.20
2023-05-22T04:47:46.459Z,13.63
2023-05-22T04:50:49.442Z,12.70
2023-05-22T04:53:51.966Z,13.23
2023-05-22T04:56:53.978Z,13.38
2023-05-22T04:59:57.538Z,14.27
2023-05-22T05:03:00.386Z,13.83
2023-05-22T05:06:02.488Z,14.10
2023-05-22T05:09:05.339Z,13.65
2023-05-22T05:12:07.301Z,13.88
2023-05-22T05:15:09.591Z,13.40
2023-05-22T05:18:12.298Z,13.65
2023-05-22T05:21:14.157Z,13.68
2023-05-22T05:24:19.784Z,13.47
2023-05-22T05:27:23.077Z,13.40
2023-05-22T05:30:25.078Z,14.98
2023-05-22T05:33:37.185Z,14.18
2023-05-22T05:36:59.567Z,14.48
2023-05-22T05:40:01.305Z,14.02
2023-05-22T05:46:06.210Z,13.68
2023-05-22T05:49:11.560Z,14.77
2023-05-22T05:52:15.116Z,15.38
2023-05-22T05:55:16.955Z,14.30
2023-05-22T05:58:18.985Z,13.98
2023-05-22T06:01:35.532Z,14.20
2023-05-22T06:04:38.441Z,13.77
2023-05-22T06:07:40.235Z,13.77
2023-05-22T06:10:43.834Z,14.40
2023-05-22T06:13:48.119Z,13.80
2023-05-22T06:16:49.971Z,14.15
2023-05-22T06:19:52.319Z,13.82
2023-05-22T06:22:53.980Z,14.02
2023-05-22T06:25:55.715Z,13.93
2023-05-22T06:28:58.323Z,12.95
2023-05-22T06:32:00.583Z,13.75
2023-05-22T06:35:06.609Z,13.73
2023-05-22T06:38:08.341Z,12.90
2023-05-22T06:41:10.230Z,13.13
2023-05-22T06:44:12.938Z,13.70
2023-05-22T06:50:17.039Z,13.25
2023-05-22T06:53:18.759Z,13.43
2023-05-22T06:56:22.794Z,14.07
2023-05-22T06:59:29.671Z,13.57
2023-05-22T07:02:34.414Z,13.82
2023-05-22T07:05:53.209Z,12.43
2023-05-22T07:08:56.202Z,12.35
2023-05-22T07:11:57.913Z,12.73
2023-05-22T07:15:00.292Z,12.75
2023-05-22T07:18:03.170Z,12.50
2023-05-22T07:21:05.137Z,12.03
2023-05-22T07:24:10.172Z,12.30
2023-05-22T07:27:15.705Z,12.25
2023-05-22T07:30:17.621Z,11.57
2023-05-22T07:33:21.352Z,12.48
2023-05-22T07:36:23.578Z,12.15
2023-05-22T07:39:25.241Z,12.60
2023-05-22T07:42:28.145Z,12.23
2023-05-22T07:45:31.034Z,12.38
2023-05-22T07:48:35.766Z,12.63
2023-05-22T07:51:37.550Z,12.13
2023-05-22T07:54:40.277Z,12.33
2023-05-22T07:57:44.956Z,12.57
2023-05-22T08:00:58.466Z,11.95
2023-05-22T08:04:00.594Z,11.15
2023-05-22T08:07:02.678Z,12.07
2023-05-22T08:10:13.127Z,11.23
2023-05-22T08:13:16.781Z,11.07
2023-05-22T08:16:18.528Z,11.55
2023-05-22T08:19:20.404Z,11.48
2023-05-22T08:22:22.276Z,11.00
2023-05-22T08:25:24.050Z,11.13
2023-05-22T08:28:25.892Z,11.30
2023-05-22T08:31:31.017Z,10.73
2023-05-22T08:34:33.124Z,10.13
2023-05-22T08:37:34.893Z,10.77
2023-05-22T08:40:38.742Z,10.70
2023-05-22T08:43:41.903Z,10.57
2023-05-22T08:46:48.462Z,10.70
2023-05-22T08:49:52.149Z,10.20
2023-05-22T08:52:58.990Z,10.45
2023-05-22T08:56:02.102Z,10.85
2023-05-22T08:59:04.752Z,10.50
2023-05-22T09:05:09.676Z,10.48
2023-05-22T09:11:22.528Z,10.40
2023-05-22T09:14:25.393Z,10.38
2023-05-22T09:17:27.327Z,10.68
2023-05-22T09:20:29.081Z,10.27
2023-05-22T09:23:30.833Z,10.67
2023-05-22T09:26:33.637Z,10.38
2023-05-22T09:29:48.738Z,10.50
2023-05-22T09:32:50.928Z,10.02
2023-05-22T09:35:53.584Z,10.25
2023-05-22T09:38:55.807Z,10.30
2023-05-22T09:42:01.376Z,10.13
2023-05-22T09:45:07.662Z,10.27
2023-05-22T09:48:09.963Z,10.05
2023-05-22T09:51:13.003Z,10.32
2023-05-22T09:54:16.182Z,10.40
2023-05-22T09:57:19.520Z,9.52
2023-05-22T10:00:24.143Z,9.57
2023-05-22T10:03:27.591Z,9.73
2023-05-22T10:06:31.485Z,10.10
2023-05-22T10:09:38.519Z,9.63
2023-05-22T10:13:03.367Z,9.38
2023-05-22T10:16:07.556Z,9.95
2023-05-22T10:19:10.253Z,9.73
2023-05-22T10:22:20.651Z,9.88
2023-05-22T10:25:22.942Z,9.23
2023-05-22T10:31:58.153Z,9.75
2023-05-22T10:35:10.253Z,9.80
2023-05-22T10:38:27.090Z,9.18
2023-05-22T10:41:28.886Z,9.93
2023-05-22T10:44:33.330Z,9.75
2023-05-22T10:47:35.261Z,9.73
2023-05-22T10:50:37.881Z,9.60
2023-05-22T10:53:43.226Z,9.38
2023-05-22T10:56:46.804Z,9.00
2023-05-22T10:59:48.583Z,9.77
2023-05-22T11:02:50.428Z,9.50
2023-05-22T11:05:57.297Z,9.77
2023-05-22T11:08:59.140Z,10.07
2023-05-22T11:12:24.510Z,9.70
2023-05-22T11:15:34.847Z,9.13
2023-05-22T11:18:36.680Z,9.43
2023-05-22T11:21:46.692Z,10.02
2023-05-22T11:24:48.788Z,9.32
2023-05-22T11:27:50.664Z,9.20
2023-05-22T11:30:52.490Z,9.95
2023-05-22T11:33:54.362Z,9.45
2023-05-22T11:37:00.131Z,9.40
2023-05-22T11:40:05.812Z,9.60
2023-05-22T11:43:07.491Z,9.35
2023-05-22T11:46:11.380Z,9.15
2023-05-22T11:49:13.309Z,8.80
2023-05-22T11:52:16.515Z,9.18
2023-05-22T11:55:18.153Z,8.95
2023-05-22T11:58:27.021Z,9.77
2023-05-22T12:01:28.719Z,8.45
2023-05-22T12:04:30.557Z,9.13
2023-05-22T12:07:32.314Z,8.82
2023-05-22T12:10:34.031Z,8.50
2023-05-22T12:13:35.726Z,8.53
2023-05-22T12:16:37.626Z,9.87
2023-05-22T12:19:43.410Z,10.25
2023-05-22T12:22:45.203Z,8.57
2023-05-22T12:25:46.940Z,9.18
2023-05-22T12:28:52.498Z,8.40
2023-05-22T12:31:54.273Z,8.07
2023-05-22T12:34:58.087Z,8.37
2023-05-22T12:37:59.703Z,7.75
2023-05-22T12:41:01.364Z,8.40
2023-05-22T12:44:04.093Z,7.63
2023-05-22T12:47:06.047Z,7.75
2023-05-22T12:50:08.432Z,7.80
2023-05-22T12:53:10.411Z,7.80
2023-05-22T12:56:12.755Z,7.88
2023-05-22T12:59:14.398Z,8.10
2023-05-22T13:02:16.054Z,7.70
2023-05-22T13:05:17.801Z,7.85
2023-05-22T13:08:20.318Z,7.95
2023-05-22T13:11:23.441Z,8.02
2023-05-22T13:14:25.217Z,8.55
2023-05-22T13:17:27.972Z,8.30
2023-05-22T13:20:29.657Z,8.15
2023-05-22T13:23:31.491Z,9.10
2023-05-22T13:26:33.186Z,8.27
2023-05-22T13:29:34.831Z,9.27
2023-05-22T13:32:36.561Z,8.52
2023-05-22T13:35:38.310Z,8.75
2023-05-22T13:38:40.059Z,8.85
2023-05-22T13:41:41.795Z,9.20
2023-05-22T13:44:43.450Z,8.60
2023-05-22T13:47:45.207Z,9.35
2023-05-22T13:53:48.520Z,8.20
2023-05-22T13:56:50.127Z,8.85
2023-05-22T13:59:52.240Z,8.77
2023-05-22T14:02:54.721Z,9.20
2023-05-22T14:05:56.809Z,8.73
2023-05-22T14:08:58.413Z,8.15
2023-05-22T14:12:00.108Z,8.55
2023-05-22T14:15:02.489Z,8.43
2023-05-22T14:18:04.194Z,8.18
2023-05-22T14:21:06.075Z,8.30
2023-05-22T14:24:08.958Z,7.25
2023-05-22T14:27:10.687Z,6.40
2023-05-22T14:30:13.756Z,6.35
2023-05-22T14:33:15.599Z,6.95
2023-05-22T14:36:17.915Z,6.90
2023-05-22T14:39:19.540Z,7.22
2023-05-22T14:42:21.096Z,7.65
2023-05-22T14:45:22.820Z,7.05
2023-05-22T14:48:26.432Z,7.85
2023-05-22T14:51:28.584Z,8.23
2023-05-22T14:54:30.424Z,8.35
2023-05-22T14:57:32.090Z,8.63
2023-05-22T15:00:33.674Z,8.38
2023-05-22T15:03:35.252Z,9.20
2023-05-22T15:06:36.892Z,9.80
2023-05-22T15:09:38.482Z,9.27
2023-05-22T15:12:40.463Z,9.70
2023-05-22T15:15:42.252Z,9.15
2023-05-22T15:18:43.935Z,9.95
2023-05-22T15:21:46.096Z,9.00
2023-05-22T15:24:48.843Z,9.93
2023-05-22T15:27:50.499Z,9.13
2023-05-22T15:30:52.270Z,10.17
2023-05-22T15:33:54.208Z,10.10
2023-05-22T15:36:55.805Z,9.57
2023-05-22T15:39:57.687Z,10.33
2023-05-22T15:43:01.780Z,10.00
2023-05-22T15:46:03.472Z,9.95
2023-05-22T15:49:06.097Z,9.55
2023-05-22T15:52:07.756Z,8.82
2023-05-22T15:55:09.489Z,9.60
2023-05-22T15:58:11.075Z,9.13
2023-05-22T16:01:12.836Z,8.85
2023-05-22T16:04:14.497Z,8.98
2023-05-22T16:07:18.782Z,9.18
2023-05-22T16:10:20.423Z,9.10
2023-05-22T16:13:22.076Z,9.68
2023-05-22T16:16:23.753Z,7.60
2023-05-22T16:19:25.549Z,7.15
2023-05-22T16:22:40.073Z,7.15
2023-05-22T16:25:50.691Z,6.90
2023-05-22T16:28:52.543Z,6.60
2023-05-22T16:31:56.928Z,6.72
2023-05-22T16:34:58.663Z,7.03
2023-05-22T16:38:00.484Z,7.13
2023-05-22T16:41:02.079Z,6.90
2023-05-22T16:44:03.823Z,7.50
2023-05-22T16:47:05.666Z,7.35
2023-05-22T16:50:08.109Z,7.07
2023-05-22T16:53:10.472Z,7.65
2023-05-22T16:56:12.612Z,7.00
2023-05-22T16:59:14.720Z,6.95
2023-05-22T17:02:16.431Z,7.00
2023-05-22T17:05:18.369Z,7.10
2023-05-22T17:08:19.998Z,7.60
2023-05-22T17:11:23.899Z,7.30
2023-05-22T17:14:26.393Z,7.32
2023-05-22T17:20:29.680Z,6.75
2023-05-22T17:23:31.303Z,7.20
2023-05-22T17:26:34.308Z,7.82
2023-05-22T17:29:35.964Z,6.88
2023-05-22T17:32:37.996Z,7.60
2023-05-22T17:35:39.733Z,7.10
2023-05-22T17:38:41.421Z,6.73
2023-05-22T17:41:42.992Z,7.30
2023-05-22T17:44:44.579Z,6.50
2023-05-22T17:47:47.005Z,6.82
2023-05-22T17:50:49.249Z,6.63
2023-05-22T17:53:55.876Z,6.97
2023-05-22T17:56:57.500Z,6.90
2023-05-22T17:59:59.136Z,7.27
2023-05-22T18:03:00.844Z,6.95
2023-05-22T18:06:02.581Z,6.80
2023-05-22T18:09:05.378Z,6.97
2023-05-22T18:12:08.105Z,6.90
2023-05-22T18:15:12.258Z,7.30
2023-05-22T18:18:14.084Z,7.47
2023-05-22T18:21:15.812Z,7.73
2023-05-22T18:24:17.508Z,9.47
2023-05-22T18:27:19.189Z,10.83
2023-05-22T18:30:20.835Z,10.55
2023-05-22T18:33:24.822Z,10.77
2023-05-22T18:36:27.413Z,14.43
2023-05-22T18:39:29.178Z,14.55
2023-05-22T18:42:30.816Z,16.88
2023-05-22T18:45:32.466Z,16.10
2023-05-22T18:48:34.106Z,16.15
2023-05-22T18:51:35.927Z,17.47
2023-05-22T18:54:37.817Z,19.73
2023-05-22T18:57:39.472Z,24.00
2023-05-22T19:00:41.322Z,24.65
2023-05-22T19:03:43.160Z,25.95
2023-05-22T19:06:45.923Z,26.70
2023-05-22T19:12:49.118Z,28.38
2023-05-22T19:15:50.732Z,27.63
2023-05-22T19:18:52.402Z,31.42
2023-05-22T19:21:54.295Z,31.77
2023-05-22T19:24:55.920Z,33.70
2023-05-22T19:27:57.538Z,32.50
2023-05-22T19:31:03.019Z,34.10
2023-05-22T19:34:04.888Z,34.88
2023-05-22T19:37:08.255Z,32.97
2023-05-22T19:40:11.055Z,33.60
2023-05-22T19:46:14.278Z,32.08
2023-05-22T19:49:15.925Z,29.83
2023-05-22T19:52:17.905Z,30.05
2023-05-22T19:55:19.539Z,28.17
2023-05-22T19:58:21.278Z,27.48
2023-05-22T20:01:23.155Z,26.25
2023-05-22T20:04:24.782Z,26.63
2023-05-22T20:07:26.375Z,25.17
2023-05-22T20:10:28.018Z,29.30
2023-05-22T20:13:29.650Z,29.20
2023-05-22T20:16:31.708Z,27.17
2023-05-22T20:19:34.602Z,21.35
2023-05-22T20:22:36.418Z,20.90
2023-05-22T20:25:38.101Z,21.23
2023-05-22T20:28:39.964Z,21.70
2023-05-22T20:31:41.733Z,19.17
2023-05-22T20:34:45.129Z,17.38
2023-05-22T20:37:48.422Z,16.27
2023-05-22T20:40:51.838Z,15.05
2023-05-22T20:43:54.474Z,15.00
2023-05-22T20:46:56.142Z,15.52
2023-05-22T20:49:57.903Z,13.90
2023-05-22T20:53:00.707Z,13.55
2023-05-22T20:56:02.380Z,12.35
2023-05-22T20:59:04.288Z,12.18
2023-05-22T21:02:05.974Z,11.88
2023-05-22T21:05:08.061Z,11.95
2023-05-22T21:08:09.710Z,11.60
2023-05-22T21:11:11.391Z,11.23
2023-05-22T21:14:13.074Z,10.43
2023-05-22T21:17:14.729Z,10.55
2023-05-22T21:20:16.448Z,10.45
2023-05-22T21:23:18.047Z,10.30
2023-05-22T21:26:22.349Z,10.63
2023-05-22T21:29:24.249Z,10.15
2023-05-22T21:32:26.080Z,11.05
2023-05-22T21:35:27.874Z,10.63
2023-05-22T21:38:29.807Z,10.27
2023-05-22T21:41:31.431Z,11.27
2023-05-22T21:44:33.071Z,11.43
2023-05-22T21:47:34.836Z,11.27
2023-05-22T21:50:36.449Z,12.02
2023-05-22T21:53:38.060Z,12.20
2023-05-22T21:56:39.718Z,11.98
2023-05-22T21:59:41.454Z,11.80
2023-05-22T22:02:43.376Z,12.70
2023-05-22T22:05:45.027Z,11.93
2023-05-22T22:08:47.482Z,12.30
2023-05-22T22:11:49.085Z,12.52
2023-05-22T22:14:51.023Z,12.05
2023-05-22T22:17:52.710Z,12.45
2023-05-22T22:20:55.795Z,13.10
2023-05-22T22:23:57.457Z,12.95
2023-05-22T22:26:59.102Z,12.50
2023-05-22T22:30:00.740Z,12.70
2023-05-22T22:33:02.978Z,13.68
2023-05-22T22:36:05.089Z,14.30
2023-05-22T22:39:07.261Z,14.10
2023-05-22T22:42:08.901Z,15.02
2023-05-22T22:45:10.773Z,14.48
2023-05-22T22:48:12.371Z,14.18
2023-05-22T22:51:14.514Z,15.77
2023-05-22T22:54:17.481Z,15.93
2023-05-22T23:00:20.909Z,16.35
2023-05-22T23:03:22.667Z,16.83
2023-05-22T23:06:24.433Z,16.45
2023-05-22T23:09:26.114Z,15.93
2023-05-22T23:12:28.148Z,17.13
2023-05-22T23:15:30.405Z,17.05
2023-05-22T23:18:32.133Z,17.67
2023-05-22T23:21:35.235Z,18.65
2023-05-22T23:24:36.922Z,18.23
2023-05-22T23:27:39.292Z,18.00
2023-05-22T23:30:40.976Z,19.25
2023-05-22T23:33:42.598Z,19.85
2023-05-22T23:36:44.337Z,19.23
2023-05-22T23:39:45.942Z,20.92
2023-05-22T23:42:48.357Z,20.70
2023-05-22T23:45:49.978Z,19.40
2023-05-22T23:48:51.693Z,20.73
2023-05-22T23:51:53.429Z,21.05
2023-05-22T23:54:55.011Z,20.42
2023-05-22T23:57:56.671Z,21.83
